Meycauayan, Philippines
Current Conditions -  °F | °C
As of 2:00 AM on Wednesday 22 Oct 2014 (Local Time) from RPLL Reporting Station
Scattered Clouds Scattered Clouds  
Wind Chill: 81°   Ceiling: Unl
Heat Index: 87°   Visibility: 6mi
Dew Point: 77°   Wind: 2mph
Humidity: 89%   Direction: 40°NE
Pressure: 29.85"   Gusts: NA
Location:  14.73°N, 120.91°E
Report Text: RPLL 211800Z 04002KT 9999 FEW025 SCT100 27/25 Q1011 RERA RMK A2985
Loading
Personal Weather Stations






























Interactive Weather Map
Tropical Storm Tracking
New forecast layout! Learn more

10-Day Weather Forecast

Advertisements
Track Severe Weather on mobile